createdAt,value
2023-01-04T00:03:47.645Z,4.25
2023-01-04T00:07:49.595Z,4.18
2023-01-04T00:11:51.296Z,5.57
2023-01-04T00:15:53.133Z,4.95
2023-01-04T00:19:54.915Z,3.58
2023-01-04T00:23:59.560Z,3.40
2023-01-04T00:28:01.326Z,4.32
2023-01-04T00:32:03.115Z,5.22
2023-01-04T00:36:07.041Z,3.28
2023-01-04T00:40:09.474Z,3.67
2023-01-04T00:44:12.186Z,4.20
2023-01-04T00:48:13.910Z,3.35
2023-01-04T00:52:15.625Z,5.18
2023-01-04T00:56:17.363Z,5.50
2023-01-04T01:00:19.093Z,4.82
2023-01-04T01:04:23.393Z,5.07
2023-01-04T01:08:25.271Z,3.15
2023-01-04T01:12:26.964Z,3.83
2023-01-04T01:20:50.402Z,3.95
2023-01-04T01:24:52.173Z,4.78
2023-01-04T01:28:53.901Z,3.38
2023-01-04T01:32:55.665Z,6.57
2023-01-04T01:36:57.633Z,6.00
2023-01-04T01:40:59.539Z,4.95
2023-01-04T01:45:11.323Z,5.63
2023-01-04T01:49:22.035Z,4.40
2023-01-04T01:53:26.424Z,5.82
2023-01-04T01:57:32.267Z,3.88
2023-01-04T02:01:34.168Z,3.50
2023-01-04T02:05:37.093Z,5.60
2023-01-04T02:09:39.865Z,6.03
2023-01-04T02:14:02.093Z,4.75
2023-01-04T02:18:12.742Z,7.28
2023-01-04T02:22:51.939Z,3.58
2023-01-04T02:27:15.396Z,3.80
2023-01-04T02:31:49.579Z,6.10
2023-01-04T02:36:14.320Z,5.97
2023-01-04T02:40:48.380Z,8.07
2023-01-04T02:45:04.566Z,8.63
2023-01-04T02:49:25.128Z,7.72
2023-01-04T02:53:31.603Z,6.05
2023-01-04T02:57:57.210Z,8.18
2023-01-04T03:02:37.693Z,6.22
2023-01-04T03:07:12.272Z,3.97
2023-01-04T03:11:35.126Z,6.25
2023-01-04T03:15:40.019Z,6.13
2023-01-04T03:19:52.111Z,3.42
2023-01-04T03:24:16.248Z,5.35
2023-01-04T03:28:40.317Z,5.18
2023-01-04T03:33:18.450Z,6.32
2023-01-04T03:37:30.599Z,9.95
2023-01-04T03:41:56.716Z,5.55
2023-01-04T03:46:27.009Z,4.90
2023-01-04T03:50:38.449Z,3.65
2023-01-04T03:54:44.459Z,5.93
2023-01-04T03:58:48.316Z,3.53
2023-01-04T04:02:50.088Z,4.57
2023-01-04T04:07:10.171Z,9.48
2023-01-04T04:11:30.534Z,8.50
2023-01-04T04:15:32.502Z,5.95
2023-01-04T04:19:34.725Z,6.30
2023-01-04T04:23:36.862Z,5.90
2023-01-04T04:27:39.070Z,5.07
2023-01-04T04:31:41.209Z,7.28
2023-01-04T04:35:43.718Z,5.72
2023-01-04T04:39:45.913Z,7.30
2023-01-04T04:43:47.889Z,6.63
2023-01-04T04:47:50.173Z,5.68
2023-01-04T04:51:52.177Z,4.68
2023-01-04T04:55:54.443Z,3.22
2023-01-04T04:59:56.263Z,8.02
2023-01-04T05:03:58.484Z,5.55
2023-01-04T05:08:00.335Z,7.75
2023-01-04T05:12:20.474Z,5.25
2023-01-04T05:16:22.387Z,4.93
2023-01-04T05:20:24.656Z,7.70
2023-01-04T05:24:26.690Z,5.57
2023-01-04T05:28:29.285Z,4.50
2023-01-04T05:32:31.227Z,4.93
2023-01-04T05:36:33.529Z,7.70
2023-01-04T05:40:35.418Z,5.53
2023-01-04T05:44:37.210Z,7.75
2023-01-04T05:48:39.088Z,9.82
2023-01-04T05:52:41.077Z,19.38
2023-01-04T05:56:42.922Z,11.48
2023-01-04T06:00:44.889Z,9.77
2023-01-04T06:04:51.537Z,6.68
2023-01-04T06:08:56.744Z,6.22
2023-01-04T06:12:58.605Z,4.20
2023-01-04T06:17:00.396Z,6.70
2023-01-04T06:21:02.178Z,5.53
2023-01-04T06:25:05.225Z,7.15
2023-01-04T06:29:07.216Z,4.63
2023-01-04T06:33:08.975Z,5.85
2023-01-04T06:37:10.858Z,8.48
2023-01-04T06:41:12.604Z,8.82
2023-01-04T06:45:15.807Z,5.97
2023-01-04T06:49:17.640Z,7.18
2023-01-04T06:53:19.420Z,6.95
2023-01-04T06:57:21.166Z,4.82
2023-01-04T07:01:23.001Z,5.57
2023-01-04T07:05:24.841Z,3.22
2023-01-04T07:09:26.639Z,4.40
2023-01-04T07:13:28.575Z,3.10
2023-01-04T07:17:30.334Z,2.70
2023-01-04T07:21:32.056Z,4.13
2023-01-04T07:25:34.066Z,4.90
2023-01-04T07:29:36.158Z,4.47
2023-01-04T07:33:37.911Z,5.03
2023-01-04T07:37:39.711Z,5.18
2023-01-04T07:41:42.112Z,7.25
2023-01-04T07:45:44.635Z,9.38
2023-01-04T07:49:48.821Z,5.22
2023-01-04T07:53:50.915Z,7.57
2023-01-04T07:57:54.146Z,5.63
2023-01-04T08:01:55.997Z,5.88
2023-01-04T08:05:57.820Z,3.70
2023-01-04T08:09:59.545Z,6.10
2023-01-04T08:14:01.729Z,4.30
2023-01-04T08:18:03.594Z,5.43
2023-01-04T08:22:05.338Z,4.03
2023-01-04T08:26:12.939Z,3.30
2023-01-04T08:30:14.739Z,3.28
2023-01-04T08:34:16.522Z,2.65
2023-01-04T08:38:58.052Z,4.35
2023-01-04T08:42:40.050Z,3.35
2023-01-04T08:46:41.942Z,2.58
2023-01-04T08:50:43.722Z,3.08
2023-01-04T08:54:45.459Z,3.75
2023-01-04T08:58:47.214Z,3.95
2023-01-04T09:02:49.104Z,4.13
2023-01-04T09:06:51.016Z,5.20
2023-01-04T09:10:52.732Z,4.38
2023-01-04T09:14:54.488Z,3.22
2023-01-04T09:18:56.746Z,3.78
2023-01-04T09:22:58.780Z,5.93
2023-01-04T09:27:00.669Z,4.25
2023-01-04T09:31:10.565Z,4.70
2023-01-04T09:35:12.362Z,6.88
2023-01-04T09:39:21.776Z,5.47
2023-01-04T09:43:25.700Z,8.68
2023-01-04T09:47:36.568Z,4.47
2023-01-04T09:51:41.271Z,6.65
2023-01-04T09:55:48.219Z,6.78
2023-01-04T10:00:14.415Z,4.80
2023-01-04T10:04:23.533Z,5.68
2023-01-04T10:08:25.396Z,4.75
2023-01-04T10:12:39.237Z,5.03
2023-01-04T10:17:14.028Z,3.75
2023-01-04T10:21:35.233Z,3.33
2023-01-04T10:25:56.887Z,4.82
2023-01-04T10:30:13.787Z,2.47
2023-01-04T10:34:24.281Z,5.18
2023-01-04T10:38:31.517Z,5.13
2023-01-04T10:42:35.120Z,3.60
2023-01-04T10:46:44.862Z,3.42
2023-01-04T10:51:03.592Z,3.20
2023-01-04T10:55:24.589Z,4.07
2023-01-04T10:59:35.170Z,2.60
2023-01-04T11:04:03.336Z,2.85
2023-01-04T11:08:17.044Z,3.00
2023-01-04T11:12:22.206Z,4.18
2023-01-04T11:16:24.028Z,3.47
2023-01-04T11:20:27.219Z,3.50
2023-01-04T11:24:33.298Z,3.67
2023-01-04T11:28:43.331Z,2.75
2023-01-04T11:33:11.005Z,2.50
2023-01-04T11:37:26.417Z,3.03
2023-01-04T11:41:28.345Z,4.80
2023-01-04T11:45:30.141Z,2.75
2023-01-04T11:49:36.564Z,2.17
2023-01-04T11:53:38.328Z,2.70
2023-01-04T11:57:40.072Z,2.80
2023-01-04T12:01:46.784Z,4.43
2023-01-04T12:05:48.586Z,4.07
2023-01-04T12:09:50.509Z,3.20
2023-01-04T12:13:52.256Z,2.53
2023-01-04T12:18:07.187Z,3.28
2023-01-04T12:22:20.238Z,2.13
2023-01-04T12:26:23.545Z,1.92
2023-01-04T12:30:34.598Z,2.42
2023-01-04T12:34:42.782Z,2.80
2023-01-04T12:39:12.223Z,2.70
2023-01-04T12:43:16.710Z,2.90
2023-01-04T12:47:53.568Z,3.65
2023-01-04T12:57:10.476Z,4.10
2023-01-04T13:01:26.033Z,6.43
2023-01-04T13:10:20.115Z,6.25
2023-01-04T13:14:57.291Z,9.50
2023-01-04T13:19:02.064Z,9.30
2023-01-04T13:23:04.161Z,10.43
2023-01-04T13:27:08.971Z,8.75
2023-01-04T13:31:10.869Z,7.25
2023-01-04T13:35:15.193Z,5.47
2023-01-04T13:39:17.043Z,5.93
2023-01-04T13:43:33.410Z,7.45
2023-01-04T13:47:38.215Z,5.75
2023-01-04T13:51:40.002Z,7.20
2023-01-04T13:55:41.943Z,7.28
2023-01-04T13:59:43.754Z,6.03
2023-01-04T14:04:01.276Z,5.28
2023-01-04T14:08:09.927Z,8.13
2023-01-04T14:12:18.053Z,7.05
2023-01-04T14:16:19.919Z,5.00
2023-01-04T14:20:24.505Z,8.43
2023-01-04T14:28:54.936Z,9.55
2023-01-04T14:32:58.792Z,12.70
2023-01-04T14:37:04.521Z,12.30
2023-01-04T14:41:42.886Z,14.43
2023-01-04T14:45:44.633Z,13.70
2023-01-04T14:49:46.356Z,13.95
2023-01-04T14:53:48.789Z,21.92
2023-01-04T14:57:50.654Z,18.88
2023-01-04T15:01:53.984Z,14.68
2023-01-04T15:05:56.636Z,11.68
2023-01-04T15:09:58.464Z,11.48
2023-01-04T15:14:00.200Z,10.55
2023-01-04T15:18:02.099Z,9.70
2023-01-04T15:22:03.857Z,11.13
2023-01-04T15:26:07.552Z,9.98
2023-01-04T15:30:11.396Z,7.80
2023-01-04T15:34:15.268Z,7.70
2023-01-04T15:38:18.375Z,7.88
2023-01-04T15:42:38.771Z,8.65
2023-01-04T15:46:40.660Z,8.60
2023-01-04T15:50:42.538Z,15.90
2023-01-04T15:54:44.281Z,12.98
2023-01-04T15:58:46.838Z,9.95
2023-01-04T16:02:48.607Z,12.15
2023-01-04T16:06:50.714Z,14.45
2023-01-04T16:10:52.538Z,12.80
2023-01-04T16:14:54.386Z,8.73
2023-01-04T16:18:57.416Z,9.07
2023-01-04T16:22:59.207Z,9.25
2023-01-04T16:27:00.951Z,8.57
2023-01-04T16:31:04.160Z,8.27
2023-01-04T16:35:06.071Z,11.70
2023-01-04T16:39:08.509Z,10.10
2023-01-04T16:43:10.464Z,10.68
2023-01-04T16:47:12.560Z,9.88
2023-01-04T16:51:15.049Z,11.95
2023-01-04T16:55:21.962Z,11.65
2023-01-04T16:59:25.676Z,10.57
2023-01-04T17:03:27.497Z,8.18
2023-01-04T17:07:33.210Z,7.97
2023-01-04T17:12:36.332Z,9.35
2023-01-04T17:16:00.716Z,9.00
2023-01-04T17:20:04.562Z,8.85
2023-01-04T17:24:06.767Z,7.03
2023-01-04T17:28:08.507Z,6.07
2023-01-04T17:32:10.394Z,5.10
2023-01-04T17:36:13.859Z,5.32
2023-01-04T17:40:22.443Z,4.80
2023-01-04T17:44:24.877Z,3.83
2023-01-04T17:48:26.610Z,4.38
2023-01-04T17:52:31.162Z,5.60
2023-01-04T17:56:34.285Z,3.80
2023-01-04T18:00:36.207Z,4.20
2023-01-04T18:04:37.969Z,4.05
2023-01-04T18:08:40.212Z,2.85
2023-01-04T18:12:41.976Z,2.13
2023-01-04T18:16:57.003Z,2.83
2023-01-04T18:21:27.068Z,1.80
2023-01-04T18:25:32.179Z,2.00
2023-01-04T18:29:33.918Z,2.00
2023-01-04T18:33:35.782Z,2.08
2023-01-04T18:37:37.715Z,1.90
2023-01-04T18:41:39.877Z,2.13
2023-01-04T18:45:41.639Z,5.43
2023-01-04T18:49:43.501Z,3.72
2023-01-04T18:53:45.320Z,4.55
2023-01-04T18:57:47.120Z,2.08
2023-01-04T19:01:48.931Z,3.15
2023-01-04T19:05:51.879Z,3.08
2023-01-04T19:09:53.975Z,3.38
2023-01-04T19:13:55.701Z,3.28
2023-01-04T19:17:57.630Z,2.63
2023-01-04T19:21:59.386Z,4.60
2023-01-04T19:26:06.140Z,3.45
2023-01-04T19:30:08.657Z,1.92
2023-01-04T19:34:10.894Z,2.85
2023-01-04T19:38:13.309Z,2.05
2023-01-04T19:42:15.095Z,2.65
2023-01-04T19:46:17.133Z,3.55
2023-01-04T19:50:19.180Z,2.75
2023-01-04T19:54:25.432Z,2.05
2023-01-04T19:58:27.669Z,5.03
2023-01-04T20:02:29.604Z,1.88
2023-01-04T20:06:32.854Z,2.67
2023-01-04T20:10:34.602Z,1.40
2023-01-04T20:14:36.440Z,1.08
2023-01-04T20:18:39.017Z,1.13
2023-01-04T20:22:40.805Z,1.30
2023-01-04T20:26:42.647Z,3.20
2023-01-04T20:30:44.429Z,1.00
2023-01-04T20:34:46.235Z,1.27
2023-01-04T20:38:48.478Z,1.20
2023-01-04T20:43:08.899Z,1.20
2023-01-04T20:47:10.744Z,1.13
2023-01-04T20:51:16.604Z,1.25
2023-01-04T20:55:18.945Z,0.95
2023-01-04T20:59:20.680Z,0.80
2023-01-04T21:03:22.513Z,1.00
2023-01-04T21:07:24.392Z,1.25
2023-01-04T21:11:26.218Z,0.80
2023-01-04T21:15:28.025Z,0.88
2023-01-04T21:19:29.900Z,1.58
2023-01-04T21:23:31.617Z,1.95
2023-01-04T21:27:33.433Z,1.15
2023-01-04T21:31:35.733Z,0.90
2023-01-04T21:35:39.006Z,1.20
2023-01-04T21:39:40.786Z,1.45
2023-01-04T21:43:42.897Z,1.08
2023-01-04T21:47:44.636Z,0.82
2023-01-04T21:51:46.362Z,0.77
2023-01-04T21:55:48.098Z,0.90
2023-01-04T21:59:49.862Z,1.02
2023-01-04T22:03:51.952Z,0.80
2023-01-04T22:07:53.791Z,0.85
2023-01-04T22:11:55.547Z,1.08
2023-01-04T22:15:57.501Z,0.70
2023-01-04T22:19:59.296Z,0.80
2023-01-04T22:24:01.095Z,1.40
2023-01-04T22:28:03.110Z,0.95
2023-01-04T22:32:07.428Z,0.80
2023-01-04T22:36:19.070Z,0.90
2023-01-04T22:40:21.379Z,0.82
2023-01-04T22:44:23.245Z,1.25
2023-01-04T22:48:24.993Z,0.80
2023-01-04T22:52:26.761Z,1.85
2023-01-04T22:56:28.968Z,0.90
2023-01-04T23:00:30.706Z,0.98
2023-01-04T23:04:32.587Z,0.95
2023-01-04T23:08:35.698Z,0.80
2023-01-04T23:12:37.428Z,0.80
2023-01-04T23:16:39.448Z,1.48
2023-01-04T23:20:41.348Z,1.25
2023-01-04T23:24:43.107Z,0.85
2023-01-04T23:28:45.772Z,0.88
2023-01-04T23:32:47.512Z,0.80
2023-01-04T23:36:49.236Z,0.70
2023-01-04T23:40:50.980Z,0.93
2023-01-04T23:44:52.721Z,0.80
2023-01-04T23:48:54.751Z,0.85
2023-01-04T23:52:56.860Z,0.80
2023-01-04T23:57:00.285Z,1.10
